createdAt,value
2023-01-03T00:01:47.008Z,1.98
2023-01-03T00:04:15.140Z,3.10
2023-01-03T00:06:47.598Z,2.47
2023-01-03T00:09:21.473Z,2.40
2023-01-03T00:12:19.818Z,2.35
2023-01-03T00:14:46.880Z,2.50
2023-01-03T00:17:14.066Z,2.38
2023-01-03T00:19:44.784Z,2.40
2023-01-03T00:22:13.480Z,2.13
2023-01-03T00:24:40.563Z,4.20
2023-01-03T00:27:08.089Z,2.22
2023-01-03T00:29:35.559Z,2.05
2023-01-03T00:32:02.868Z,1.98
2023-01-03T00:34:30.050Z,1.70
2023-01-03T00:36:57.950Z,1.60
2023-01-03T00:39:25.469Z,1.70
2023-01-03T00:41:52.668Z,1.77
2023-01-03T00:44:19.955Z,1.30
2023-01-03T00:46:47.063Z,1.50
2023-01-03T00:49:14.321Z,1.55
2023-01-03T00:51:42.499Z,1.40
2023-01-03T00:54:11.129Z,1.52
2023-01-03T00:56:41.247Z,1.40
2023-01-03T00:59:09.701Z,1.38
2023-01-03T01:01:47.114Z,1.30
2023-01-03T01:04:20.291Z,1.50
2023-01-03T01:06:50.001Z,1.45
2023-01-03T01:09:21.113Z,1.40
2023-01-03T01:11:48.885Z,1.40
2023-01-03T01:14:19.989Z,1.20
2023-01-03T01:16:53.567Z,1.60
2023-01-03T01:19:23.946Z,5.13
2023-01-03T01:21:51.543Z,1.90
2023-01-03T01:24:18.827Z,1.95
2023-01-03T01:26:46.918Z,2.40
2023-01-03T01:29:15.769Z,2.00
2023-01-03T01:31:43.936Z,1.63
2023-01-03T01:34:12.130Z,1.63
2023-01-03T01:36:42.044Z,2.10
2023-01-03T01:39:13.960Z,1.52
2023-01-03T01:42:00.145Z,1.50
2023-01-03T01:44:48.340Z,1.30
2023-01-03T01:47:33.407Z,1.60
2023-01-03T01:50:06.796Z,1.42
2023-01-03T01:52:37.072Z,1.30
2023-01-03T01:55:08.040Z,1.10
2023-01-03T01:57:37.566Z,1.50
2023-01-03T02:00:06.880Z,1.20
2023-01-03T02:02:34.199Z,1.77
2023-01-03T02:05:06.654Z,1.30
2023-01-03T02:07:34.372Z,1.27
2023-01-03T02:10:02.154Z,1.35
2023-01-03T02:12:50.807Z,1.30
2023-01-03T02:15:27.974Z,1.10
2023-01-03T02:18:16.593Z,1.20
2023-01-03T02:21:26.732Z,1.38
2023-01-03T02:24:08.878Z,2.92
2023-01-03T02:27:12.954Z,1.85
2023-01-03T02:29:39.962Z,1.45
2023-01-03T02:32:20.255Z,1.50
2023-01-03T02:35:02.288Z,1.60
2023-01-03T02:37:44.169Z,1.60
2023-01-03T02:40:30.836Z,1.95
2023-01-03T02:43:07.502Z,1.70
2023-01-03T02:45:58.557Z,1.92
2023-01-03T02:48:39.808Z,2.13
2023-01-03T02:51:15.152Z,1.53
2023-01-03T02:53:46.891Z,1.33
2023-01-03T02:56:21.143Z,1.30
2023-01-03T02:58:52.491Z,1.30
2023-01-03T03:01:20.571Z,1.30
2023-01-03T03:03:48.401Z,1.30
2023-01-03T03:06:34.168Z,1.38
2023-01-03T03:09:01.250Z,1.20
2023-01-03T03:11:52.102Z,1.20
2023-01-03T03:14:25.626Z,1.15
2023-01-03T03:16:55.396Z,1.33
2023-01-03T03:19:50.097Z,1.00
2023-01-03T03:22:56.812Z,1.00
2023-01-03T03:25:43.106Z,1.10
2023-01-03T03:28:32.960Z,0.73
2023-01-03T03:31:06.264Z,1.10
2023-01-03T03:33:39.129Z,1.00
2023-01-03T03:36:13.725Z,0.98
2023-01-03T03:38:43.544Z,0.80
2023-01-03T03:41:46.853Z,1.02
2023-01-03T03:44:54.387Z,1.00
2023-01-03T03:48:02.809Z,0.98
2023-01-03T03:50:45.353Z,0.70
2023-01-03T03:53:13.891Z,1.05
2023-01-03T03:55:48.387Z,0.97
2023-01-03T03:58:19.024Z,1.23
2023-01-03T04:00:49.382Z,1.33
2023-01-03T04:03:18.241Z,1.50
2023-01-03T04:05:52.264Z,1.73
2023-01-03T04:08:19.345Z,1.80
2023-01-03T04:10:46.491Z,2.70
2023-01-03T04:13:13.564Z,1.90
2023-01-03T04:15:40.617Z,1.60
2023-01-03T04:18:07.715Z,1.35
2023-01-03T04:20:34.798Z,1.30
2023-01-03T04:23:01.879Z,2.95
2023-01-03T04:25:28.974Z,1.17
2023-01-03T04:27:56.012Z,1.58
2023-01-03T04:30:23.144Z,1.20
2023-01-03T04:32:50.196Z,1.08
2023-01-03T04:35:17.342Z,1.05
2023-01-03T04:37:44.434Z,1.20
2023-01-03T04:40:11.756Z,1.10
2023-01-03T04:42:57.684Z,0.98
2023-01-03T04:45:24.804Z,1.40
2023-01-03T04:47:53.368Z,0.77
2023-01-03T04:50:20.429Z,1.10
2023-01-03T04:52:47.528Z,1.25
2023-01-03T04:55:14.647Z,0.93
2023-01-03T04:57:41.714Z,1.40
2023-01-03T05:00:09.385Z,0.90
2023-01-03T05:02:36.519Z,1.00
2023-01-03T05:05:03.942Z,1.10
2023-01-03T05:07:31.024Z,0.90
2023-01-03T05:09:58.065Z,0.70
2023-01-03T05:12:25.354Z,0.70
2023-01-03T05:14:52.843Z,1.10
2023-01-03T05:17:20.949Z,1.08
2023-01-03T05:20:07.189Z,1.67
2023-01-03T05:22:53.022Z,2.00
2023-01-03T05:25:38.620Z,1.70
2023-01-03T05:28:05.772Z,1.53
2023-01-03T05:30:32.856Z,1.03
2023-01-03T05:32:59.929Z,1.50
2023-01-03T05:35:26.964Z,1.35
2023-01-03T05:37:54.385Z,1.30
2023-01-03T05:40:21.530Z,2.67
2023-01-03T05:42:48.595Z,2.20
2023-01-03T05:45:16.352Z,1.60
2023-01-03T05:47:43.410Z,1.52
2023-01-03T05:50:10.466Z,1.20
2023-01-03T05:52:37.530Z,1.20
2023-01-03T05:55:04.872Z,1.38
2023-01-03T05:57:35.374Z,0.90
2023-01-03T06:00:04.042Z,1.20
2023-01-03T06:02:31.162Z,1.20
2023-01-03T06:04:58.250Z,1.40
2023-01-03T06:07:25.346Z,1.10
2023-01-03T06:09:52.397Z,0.73
2023-01-03T06:12:19.462Z,0.93
2023-01-03T06:14:46.532Z,1.13
2023-01-03T06:17:32.192Z,1.73
2023-01-03T06:19:59.257Z,1.55
2023-01-03T06:22:26.314Z,1.63
2023-01-03T06:24:53.369Z,1.50
2023-01-03T06:27:20.674Z,1.58
2023-01-03T06:29:47.820Z,1.60
2023-01-03T06:32:14.950Z,1.20
2023-01-03T06:34:42.046Z,1.40
2023-01-03T06:37:09.198Z,2.10
2023-01-03T06:39:36.705Z,2.70
2023-01-03T06:42:22.963Z,2.10
2023-01-03T06:45:08.619Z,2.37
2023-01-03T06:47:55.764Z,2.75
2023-01-03T06:50:41.809Z,3.05
2023-01-03T06:53:20.704Z,2.72
2023-01-03T06:55:52.875Z,2.72
2023-01-03T06:58:23.625Z,3.00
2023-01-03T07:00:50.920Z,3.30
2023-01-03T07:03:18.079Z,2.90
2023-01-03T07:05:45.140Z,4.20
2023-01-03T07:08:12.182Z,2.20
2023-01-03T07:10:39.251Z,2.08
2023-01-03T07:13:24.811Z,2.17
2023-01-03T07:15:51.988Z,1.90
2023-01-03T07:18:19.145Z,1.80
2023-01-03T07:20:46.432Z,1.80
2023-01-03T07:23:13.812Z,3.00
2023-01-03T07:25:43.882Z,4.82
2023-01-03T07:28:13.292Z,3.08
2023-01-03T07:30:43.102Z,3.53
2023-01-03T07:33:12.243Z,3.25
2023-01-03T07:35:39.283Z,5.97
2023-01-03T07:38:07.976Z,3.70
2023-01-03T07:40:35.113Z,5.60
2023-01-03T07:43:20.963Z,4.88
2023-01-03T07:45:48.335Z,5.10
2023-01-03T07:48:15.693Z,4.78
2023-01-03T07:50:42.875Z,4.00
2023-01-03T07:53:16.363Z,3.55
2023-01-03T07:55:45.267Z,3.28
2023-01-03T07:58:13.132Z,2.87
2023-01-03T08:00:41.552Z,2.20
2023-01-03T08:03:11.635Z,2.33
2023-01-03T08:05:39.059Z,2.22
2023-01-03T08:08:06.650Z,2.47
2023-01-03T08:10:52.616Z,1.92
2023-01-03T08:13:19.834Z,2.90
2023-01-03T08:15:51.099Z,2.53
2023-01-03T08:18:21.724Z,2.20
2023-01-03T08:20:48.909Z,1.90
2023-01-03T08:23:16.028Z,1.98
2023-01-03T08:25:43.125Z,2.40
2023-01-03T08:28:11.564Z,1.90
2023-01-03T08:30:45.496Z,1.80
2023-01-03T08:33:14.845Z,1.40
2023-01-03T08:35:46.645Z,1.60
2023-01-03T08:38:18.089Z,1.90
2023-01-03T08:40:46.724Z,1.40
2023-01-03T08:43:15.269Z,1.50
2023-01-03T08:45:42.636Z,1.30
2023-01-03T08:48:11.878Z,1.98
2023-01-03T08:50:39.177Z,1.95
2023-01-03T08:53:06.303Z,1.30
2023-01-03T08:55:33.953Z,1.30
2023-01-03T08:58:01.164Z,1.42
2023-01-03T09:00:29.125Z,1.38
2023-01-03T09:03:02.396Z,3.20
2023-01-03T09:05:29.747Z,2.00
2023-01-03T09:07:58.157Z,1.80
2023-01-03T09:10:26.038Z,1.80
2023-01-03T09:12:53.260Z,2.88
2023-01-03T09:15:20.841Z,2.17
2023-01-03T09:17:49.302Z,2.05
2023-01-03T09:20:18.633Z,2.10
2023-01-03T09:22:47.589Z,2.13
2023-01-03T09:25:15.518Z,2.00
2023-01-03T09:27:47.448Z,1.40
2023-01-03T09:30:16.670Z,1.40
2023-01-03T09:32:43.831Z,1.40
2023-01-03T09:35:11.148Z,1.40
2023-01-03T09:37:39.167Z,1.33
2023-01-03T09:40:09.479Z,1.30
2023-01-03T09:42:56.181Z,1.30
2023-01-03T09:45:29.602Z,1.73
2023-01-03T09:47:57.462Z,1.97
2023-01-03T09:50:39.501Z,2.05
2023-01-03T09:53:41.059Z,2.25
2023-01-03T09:56:30.457Z,2.10
2023-01-03T09:59:35.062Z,2.15
2023-01-03T10:03:00.779Z,2.28
2023-01-03T10:05:56.901Z,2.03
2023-01-03T10:08:32.149Z,7.30
2023-01-03T10:11:26.271Z,4.60
2023-01-03T10:14:02.385Z,4.07
2023-01-03T10:16:42.074Z,6.78
2023-01-03T10:19:29.669Z,6.00
2023-01-03T10:22:10.784Z,3.13
2023-01-03T10:24:47.672Z,2.95
2023-01-03T10:27:19.306Z,3.42
2023-01-03T10:29:49.923Z,2.80
2023-01-03T10:32:53.281Z,3.95
2023-01-03T10:35:27.371Z,7.18
2023-01-03T10:37:56.269Z,7.37
2023-01-03T10:40:36.672Z,7.10
2023-01-03T10:43:36.010Z,4.53
2023-01-03T10:46:16.900Z,6.15
2023-01-03T10:51:47.125Z,5.32
2023-01-03T10:54:20.875Z,6.53
2023-01-03T10:56:49.039Z,2.67
2023-01-03T10:59:16.084Z,1.52
2023-01-03T11:02:01.811Z,1.10
2023-01-03T11:04:31.708Z,0.98
2023-01-03T11:07:13.676Z,1.10
2023-01-03T11:09:58.944Z,1.00
2023-01-03T11:12:37.568Z,1.30
2023-01-03T11:15:20.044Z,1.30
2023-01-03T11:18:01.833Z,1.75
2023-01-03T11:21:02.447Z,2.55
2023-01-03T11:23:53.718Z,2.35
2023-01-03T11:26:51.203Z,2.90
2023-01-03T11:29:36.740Z,6.82
2023-01-03T11:32:33.821Z,1.93
2023-01-03T11:35:39.409Z,2.58
2023-01-03T11:38:35.214Z,2.75
2023-01-03T11:41:20.958Z,2.50
2023-01-03T11:44:29.627Z,2.25
2023-01-03T11:47:23.358Z,1.70
2023-01-03T11:50:17.314Z,1.92
2023-01-03T11:53:04.379Z,1.80
2023-01-03T11:56:00.066Z,2.05
2023-01-03T11:58:45.154Z,2.00
2023-01-03T12:01:49.429Z,1.70
2023-01-03T12:04:22.827Z,0.95
2023-01-03T12:10:32.265Z,1.10
2023-01-03T12:13:29.661Z,1.20
2023-01-03T12:16:09.036Z,1.92
2023-01-03T12:18:46.050Z,1.00
2023-01-03T12:21:35.722Z,1.90
2023-01-03T12:24:21.122Z,1.48
2023-01-03T12:26:53.902Z,1.40
2023-01-03T12:29:51.439Z,1.50
2023-01-03T12:32:25.242Z,1.30
2023-01-03T12:35:06.904Z,1.00
2023-01-03T12:37:38.718Z,1.05
2023-01-03T12:40:41.281Z,0.82
2023-01-03T12:43:36.059Z,0.82
2023-01-03T12:46:13.089Z,0.80
2023-01-03T12:49:01.901Z,0.80
2023-01-03T12:51:30.088Z,1.42
2023-01-03T12:54:15.875Z,1.63
2023-01-03T12:57:09.531Z,6.03
2023-01-03T12:59:42.761Z,9.80
2023-01-03T13:02:25.747Z,7.40
2023-01-03T13:04:58.400Z,5.60
2023-01-03T13:07:30.075Z,8.20
2023-01-03T13:10:13.455Z,6.75
2023-01-03T13:12:52.843Z,5.85
2023-01-03T13:15:37.338Z,5.75
2023-01-03T13:18:21.436Z,4.78
2023-01-03T13:20:50.554Z,5.03
2023-01-03T13:23:35.820Z,3.92
2023-01-03T13:26:05.911Z,6.10
2023-01-03T13:28:37.019Z,5.90
2023-01-03T13:31:19.169Z,5.22
2023-01-03T13:33:56.078Z,4.60
2023-01-03T13:36:24.327Z,4.55
2023-01-03T13:38:51.769Z,3.75
2023-01-03T13:41:36.881Z,3.75
2023-01-03T13:44:19.918Z,3.30
2023-01-03T13:46:48.805Z,3.55
2023-01-03T13:49:25.338Z,3.33
2023-01-03T13:51:59.708Z,3.17
2023-01-03T13:54:35.805Z,3.20
2023-01-03T13:57:30.581Z,2.80
2023-01-03T13:59:59.896Z,2.95
2023-01-03T14:02:44.527Z,2.43
2023-01-03T14:05:23.347Z,2.63
2023-01-03T14:07:58.926Z,2.20
2023-01-03T14:11:06.896Z,2.53
2023-01-03T14:13:45.878Z,2.40
2023-01-03T14:16:22.672Z,2.35
2023-01-03T14:18:56.238Z,2.10
2023-01-03T14:21:28.360Z,1.80
2023-01-03T14:24:00.844Z,1.88
2023-01-03T14:26:32.574Z,1.80
2023-01-03T14:29:00.243Z,1.30
2023-01-03T14:31:28.007Z,1.75
2023-01-03T14:34:00.428Z,1.60
2023-01-03T14:36:28.379Z,1.90
2023-01-03T14:38:57.733Z,3.17
2023-01-03T14:41:39.003Z,3.53
2023-01-03T14:44:15.059Z,4.03
2023-01-03T14:46:53.036Z,3.58
2023-01-03T14:49:30.009Z,3.10
2023-01-03T14:52:03.930Z,6.68
2023-01-03T14:54:31.348Z,4.55
2023-01-03T14:57:00.462Z,3.70
2023-01-03T14:59:28.151Z,3.10
2023-01-03T15:01:55.442Z,2.95
2023-01-03T15:04:24.194Z,2.90
2023-01-03T15:07:11.322Z,2.60
2023-01-03T15:09:40.425Z,2.05
2023-01-03T15:12:07.860Z,2.00
2023-01-03T15:14:38.836Z,2.00
2023-01-03T15:17:16.197Z,1.70
2023-01-03T15:19:55.677Z,1.80
2023-01-03T15:22:26.971Z,1.58
2023-01-03T15:25:06.210Z,1.30
2023-01-03T15:27:41.930Z,1.83
2023-01-03T15:30:29.803Z,1.45
2023-01-03T15:33:02.783Z,1.52
2023-01-03T15:35:37.422Z,1.45
2023-01-03T15:38:33.624Z,1.60
2023-01-03T15:41:04.408Z,1.20
2023-01-03T15:43:38.388Z,1.60
2023-01-03T15:46:15.888Z,1.30
2023-01-03T15:48:51.693Z,1.58
2023-01-03T15:51:18.761Z,2.50
2023-01-03T15:53:45.936Z,8.20
2023-01-03T15:56:23.606Z,9.02
2023-01-03T15:58:54.428Z,8.20
2023-01-03T16:01:22.993Z,9.38
2023-01-03T16:03:51.878Z,7.75
2023-01-03T16:06:19.058Z,6.72
2023-01-03T16:08:46.374Z,7.30
2023-01-03T16:11:20.905Z,6.03
2023-01-03T16:13:53.009Z,5.43
2023-01-03T16:16:30.232Z,5.00
2023-01-03T16:18:57.879Z,4.40
2023-01-03T16:21:25.311Z,4.50
2023-01-03T16:23:52.657Z,4.70
2023-01-03T16:26:20.299Z,4.07
2023-01-03T16:28:47.750Z,3.90
2023-01-03T16:31:19.671Z,4.20
2023-01-03T16:33:48.925Z,4.53
2023-01-03T16:36:38.088Z,4.38
2023-01-03T16:39:13.780Z,4.07
2023-01-03T16:41:40.866Z,4.10
2023-01-03T16:44:07.939Z,3.65
2023-01-03T16:46:37.626Z,3.65
2023-01-03T16:49:06.029Z,3.80
2023-01-03T16:51:35.684Z,2.97
2023-01-03T16:54:07.234Z,2.70
2023-01-03T16:56:34.294Z,2.20
2023-01-03T16:59:01.377Z,2.88
2023-01-03T17:01:28.595Z,2.78
2023-01-03T17:03:55.947Z,2.60
2023-01-03T17:06:35.012Z,3.47
2023-01-03T17:09:12.282Z,3.20
2023-01-03T17:11:39.737Z,3.53
2023-01-03T17:14:10.260Z,3.00
2023-01-03T17:16:37.426Z,2.80
2023-01-03T17:19:04.532Z,2.72
2023-01-03T17:21:35.401Z,2.40
2023-01-03T17:24:16.371Z,2.25
2023-01-03T17:26:43.989Z,2.75
2023-01-03T17:29:18.316Z,2.13
2023-01-03T17:31:45.442Z,2.30
2023-01-03T17:34:30.444Z,2.42
2023-01-03T17:36:59.639Z,2.65
2023-01-03T17:39:27.575Z,2.53
2023-01-03T17:42:12.971Z,2.33
2023-01-03T17:44:40.241Z,2.33
2023-01-03T17:47:43.984Z,2.30
2023-01-03T17:50:11.207Z,2.30
2023-01-03T17:52:38.908Z,2.17
2023-01-03T17:55:18.487Z,1.88
2023-01-03T17:57:46.111Z,2.07
2023-01-03T18:00:21.585Z,1.67
2023-01-03T18:02:49.241Z,1.60
2023-01-03T18:05:26.065Z,1.60
2023-01-03T18:08:00.289Z,1.40
2023-01-03T18:10:43.709Z,1.75
2023-01-03T18:13:26.184Z,1.90
2023-01-03T18:15:54.578Z,2.13
2023-01-03T18:18:23.561Z,1.73
2023-01-03T18:20:51.241Z,2.00
2023-01-03T18:23:37.564Z,2.30
2023-01-03T18:26:07.788Z,2.03
2023-01-03T18:28:34.889Z,2.70
2023-01-03T18:31:02.301Z,1.70
2023-01-03T18:33:29.455Z,1.80
2023-01-03T18:35:56.633Z,1.27
2023-01-03T18:38:29.360Z,1.35
2023-01-03T18:41:02.473Z,1.17
2023-01-03T18:43:31.338Z,1.20
2023-01-03T18:45:58.470Z,1.15
2023-01-03T18:48:25.664Z,1.03
2023-01-03T18:50:58.354Z,1.02
2023-01-03T18:53:29.029Z,1.10
2023-01-03T18:55:56.417Z,1.17
2023-01-03T18:58:38.774Z,2.10
2023-01-03T19:01:06.483Z,1.77
2023-01-03T19:03:35.578Z,1.60
2023-01-03T19:06:13.269Z,1.47
2023-01-03T19:08:40.444Z,1.52
2023-01-03T19:11:15.180Z,1.55
2023-01-03T19:13:50.690Z,1.77
2023-01-03T19:16:20.264Z,1.80
2023-01-03T19:18:47.521Z,1.60
2023-01-03T19:21:15.952Z,1.33
2023-01-03T19:23:44.774Z,1.67
2023-01-03T19:26:28.757Z,1.70
2023-01-03T19:28:58.661Z,1.40
2023-01-03T19:31:27.389Z,1.67
2023-01-03T19:33:54.692Z,1.77
2023-01-03T19:36:22.561Z,1.58
2023-01-03T19:38:49.897Z,2.38
2023-01-03T19:41:20.052Z,2.17
2023-01-03T19:43:48.388Z,2.33
2023-01-03T19:46:17.481Z,2.47
2023-01-03T19:48:45.123Z,2.33
2023-01-03T19:51:12.955Z,2.20
2023-01-03T19:53:42.371Z,2.67
2023-01-03T19:56:22.182Z,2.70
2023-01-03T19:58:50.150Z,2.28
2023-01-03T20:01:18.347Z,2.53
2023-01-03T20:03:47.769Z,3.22
2023-01-03T20:06:17.862Z,2.33
2023-01-03T20:08:46.001Z,1.90
2023-01-03T20:11:19.542Z,1.90
2023-01-03T20:13:47.267Z,1.80
2023-01-03T20:16:15.656Z,1.50
2023-01-03T20:18:43.382Z,1.50
2023-01-03T20:21:22.339Z,1.63
2023-01-03T20:23:56.084Z,1.50
2023-01-03T20:26:29.782Z,1.50
2023-01-03T20:28:58.369Z,1.40
2023-01-03T20:31:25.935Z,1.48
2023-01-03T20:33:53.178Z,1.50
2023-01-03T20:36:23.477Z,1.60
2023-01-03T20:38:54.196Z,1.40
2023-01-03T20:41:21.835Z,1.50
2023-01-03T20:43:50.050Z,1.58
2023-01-03T20:46:21.695Z,1.60
2023-01-03T20:48:57.734Z,1.50
2023-01-03T20:51:25.108Z,1.55
2023-01-03T20:53:55.135Z,3.10
2023-01-03T20:56:23.521Z,2.80
2023-01-03T20:58:50.754Z,2.58
2023-01-03T21:01:17.990Z,2.30
2023-01-03T21:03:45.264Z,2.00
2023-01-03T21:06:25.252Z,1.95
2023-01-03T21:08:55.832Z,1.92
2023-01-03T21:11:31.231Z,2.10
2023-01-03T21:14:00.123Z,2.17
2023-01-03T21:16:39.427Z,2.15
2023-01-03T21:19:16.831Z,2.47
2023-01-03T21:21:46.566Z,2.30
2023-01-03T21:24:16.261Z,2.35
2023-01-03T21:26:43.376Z,5.20
2023-01-03T21:29:10.738Z,4.68
2023-01-03T21:31:39.543Z,4.00
2023-01-03T21:34:08.071Z,3.40
2023-01-03T21:36:35.851Z,3.93
2023-01-03T21:39:04.319Z,5.10
2023-01-03T21:41:33.926Z,5.82
2023-01-03T21:44:07.302Z,5.15
2023-01-03T21:46:34.404Z,4.20
2023-01-03T21:49:01.526Z,4.18
2023-01-03T21:51:38.006Z,3.10
2023-01-03T21:54:09.816Z,3.50
2023-01-03T21:56:44.832Z,2.95
2023-01-03T21:59:16.017Z,3.00
2023-01-03T22:02:06.346Z,2.63
2023-01-03T22:04:34.169Z,2.60
2023-01-03T22:07:01.972Z,2.67
2023-01-03T22:09:49.462Z,2.63
2023-01-03T22:12:17.693Z,2.80
2023-01-03T22:14:45.878Z,2.60
2023-01-03T22:17:13.645Z,2.50
2023-01-03T22:19:40.913Z,2.38
2023-01-03T22:22:08.035Z,2.47
2023-01-03T22:24:35.231Z,2.40
2023-01-03T22:27:02.382Z,3.00
2023-01-03T22:29:29.470Z,2.70
2023-01-03T22:31:56.565Z,2.53
2023-01-03T22:34:24.046Z,2.50
2023-01-03T22:36:51.211Z,2.20
2023-01-03T22:39:18.291Z,2.27
2023-01-03T22:41:45.371Z,2.00
2023-01-03T22:44:12.531Z,2.00
2023-01-03T22:46:39.882Z,2.00
2023-01-03T22:49:06.972Z,2.10
2023-01-03T22:51:34.034Z,3.33
2023-01-03T22:54:01.157Z,2.20
2023-01-03T22:56:28.200Z,2.42
2023-01-03T22:58:55.331Z,2.30
2023-01-03T23:01:27.723Z,2.30
2023-01-03T23:04:00.082Z,2.00
2023-01-03T23:06:29.475Z,2.65
2023-01-03T23:08:57.281Z,2.27
2023-01-03T23:11:45.740Z,2.00
2023-01-03T23:14:15.779Z,2.88
2023-01-03T23:16:43.278Z,3.00
2023-01-03T23:19:15.751Z,2.38
2023-01-03T23:21:45.242Z,2.72
2023-01-03T23:24:30.672Z,2.28
2023-01-03T23:26:57.732Z,2.30
2023-01-03T23:29:24.850Z,2.80
2023-01-03T23:31:52.634Z,2.67
2023-01-03T23:34:19.811Z,2.50
2023-01-03T23:36:46.937Z,2.93
2023-01-03T23:39:16.250Z,2.55
2023-01-03T23:41:43.503Z,2.33
2023-01-03T23:44:10.681Z,2.33
2023-01-03T23:46:38.245Z,2.38
2023-01-03T23:49:05.404Z,2.10
2023-01-03T23:51:32.536Z,1.80
2023-01-03T23:53:59.631Z,1.90
2023-01-03T23:56:26.691Z,1.88
2023-01-03T23:58:53.875Z,1.90
